createdAt,value
2023-03-02T00:00:00.432Z,3.80
2023-03-02T00:01:02.988Z,3.80
2023-03-02T00:02:05.678Z,3.80
2023-03-02T00:03:01.320Z,3.80
2023-03-02T00:04:01.737Z,3.80
2023-03-02T00:05:00.439Z,3.80
2023-03-02T00:06:00.600Z,3.80
2023-03-02T00:07:03.126Z,3.80
2023-03-02T00:08:01.320Z,3.80
2023-03-02T00:09:01.054Z,3.80
2023-03-02T00:10:00.521Z,3.80
2023-03-02T00:11:00.484Z,3.80
2023-03-02T00:12:00.659Z,4.00
2023-03-02T00:13:00.923Z,4.00
2023-03-02T00:14:00.434Z,4.00
2023-03-02T00:15:00.426Z,4.00
2023-03-02T00:16:00.438Z,4.00
2023-03-02T00:17:00.440Z,4.00
2023-03-02T00:18:00.467Z,4.00
2023-03-02T00:19:00.458Z,4.00
2023-03-02T00:20:00.426Z,4.00
2023-03-02T00:21:00.439Z,4.00
2023-03-02T00:22:00.425Z,4.00
2023-03-02T00:23:00.445Z,4.00
2023-03-02T00:24:00.481Z,4.00
2023-03-02T00:25:00.649Z,4.00
2023-03-02T00:26:00.431Z,4.00
2023-03-02T00:27:00.493Z,4.00
2023-03-02T00:28:00.435Z,4.00
2023-03-02T00:29:00.663Z,4.00
2023-03-02T00:30:00.438Z,4.00
2023-03-02T00:31:03.500Z,4.00
2023-03-02T00:32:00.440Z,4.00
2023-03-02T00:33:00.420Z,4.00
2023-03-02T00:34:00.530Z,4.00
2023-03-02T00:35:00.838Z,4.00
2023-03-02T00:36:00.684Z,4.00
2023-03-02T00:37:00.434Z,4.00
2023-03-02T00:38:00.419Z,4.00
2023-03-02T00:39:00.486Z,4.00
2023-03-02T00:40:00.445Z,4.00
2023-03-02T00:41:00.437Z,4.00
2023-03-02T00:42:00.435Z,4.10
2023-03-02T00:43:00.456Z,4.10
2023-03-02T00:44:00.453Z,4.10
2023-03-02T00:45:00.505Z,4.10
2023-03-02T00:46:07.125Z,4.10
2023-03-02T00:47:00.547Z,4.10
2023-03-02T00:48:00.452Z,4.10
2023-03-02T00:49:00.424Z,4.10
2023-03-02T00:50:00.812Z,4.10
2023-03-02T00:51:00.508Z,4.10
2023-03-02T00:52:00.428Z,4.10
2023-03-02T00:53:00.446Z,4.10
2023-03-02T00:54:00.425Z,4.10
2023-03-02T00:55:00.426Z,4.10
2023-03-02T00:56:00.664Z,4.10
2023-03-02T00:57:00.423Z,4.10
2023-03-02T00:58:00.549Z,4.10
2023-03-02T00:59:04.408Z,4.10
2023-03-02T01:00:00.485Z,4.10
2023-03-02T01:01:04.663Z,4.10
2023-03-02T01:02:00.534Z,4.10
2023-03-02T01:03:00.548Z,4.10
2023-03-02T01:04:00.446Z,4.10
2023-03-02T01:05:00.436Z,4.10
2023-03-02T01:06:00.443Z,4.10
2023-03-02T01:07:02.310Z,4.10
2023-03-02T01:08:00.441Z,4.10
2023-03-02T01:09:00.436Z,4.10
2023-03-02T01:10:00.472Z,4.10
2023-03-02T01:11:00.667Z,4.10
2023-03-02T01:12:00.675Z,4.20
2023-03-02T01:13:00.694Z,4.20
2023-03-02T01:14:00.679Z,4.20
2023-03-02T01:15:00.688Z,4.20
2023-03-02T01:16:01.227Z,4.20
2023-03-02T01:17:00.666Z,4.20
2023-03-02T01:18:00.784Z,4.20
2023-03-02T01:19:00.657Z,4.20
2023-03-02T01:20:00.701Z,4.20
2023-03-02T01:21:02.182Z,4.20
2023-03-02T01:22:00.722Z,4.20
2023-03-02T01:23:00.702Z,4.20
2023-03-02T01:24:00.710Z,4.20
2023-03-02T01:25:01.222Z,4.20
2023-03-02T01:26:00.546Z,4.20
2023-03-02T01:27:00.742Z,4.20
2023-03-02T01:28:00.585Z,4.20
2023-03-02T01:29:00.676Z,4.20
2023-03-02T01:30:00.593Z,4.20
2023-03-02T01:31:00.572Z,4.20
2023-03-02T01:32:01.369Z,4.20
2023-03-02T01:33:00.520Z,4.20
2023-03-02T01:34:00.539Z,4.20
2023-03-02T01:35:00.513Z,4.20
2023-03-02T01:36:00.615Z,4.20
2023-03-02T01:37:00.572Z,4.20
2023-03-02T01:38:00.529Z,4.20
2023-03-02T01:39:00.538Z,4.20
2023-03-02T01:40:00.549Z,4.20
2023-03-02T01:41:00.536Z,4.20
2023-03-02T01:42:00.839Z,4.00
2023-03-02T01:43:01.285Z,4.00
2023-03-02T01:44:00.596Z,4.00
2023-03-02T01:45:00.556Z,4.00
2023-03-02T01:46:02.183Z,4.00
2023-03-02T01:47:01.644Z,4.00
2023-03-02T01:48:00.655Z,4.00
2023-03-02T01:49:03.479Z,4.00
2023-03-02T01:50:02.616Z,4.00
2023-03-02T01:51:01.724Z,4.00
2023-03-02T01:52:00.908Z,4.00
2023-03-02T01:53:00.564Z,4.00
2023-03-02T01:54:03.214Z,4.00
2023-03-02T01:55:02.967Z,4.00
2023-03-02T01:56:02.590Z,4.00
2023-03-02T01:57:02.130Z,4.00
2023-03-02T01:58:01.976Z,4.00
2023-03-02T01:59:02.939Z,4.00
2023-03-02T02:00:02.446Z,4.00
2023-03-02T02:01:01.209Z,4.00
2023-03-02T02:02:02.705Z,4.00
2023-03-02T02:03:02.600Z,4.00
2023-03-02T02:04:00.528Z,4.00
2023-03-02T02:05:02.071Z,4.00
2023-03-02T02:06:09.401Z,4.00
2023-03-02T02:07:01.839Z,4.00
2023-03-02T02:08:01.058Z,4.00
2023-03-02T02:09:01.843Z,4.00
2023-03-02T02:10:01.408Z,4.00
2023-03-02T02:11:00.787Z,4.00
2023-03-02T02:12:00.671Z,3.50
2023-03-02T02:13:00.431Z,3.50
2023-03-02T02:14:01.626Z,3.50
2023-03-02T02:15:01.051Z,3.50
2023-03-02T02:16:00.450Z,3.50
2023-03-02T02:17:00.868Z,3.50
2023-03-02T02:18:00.461Z,3.50
2023-03-02T02:19:00.777Z,3.50
2023-03-02T02:20:01.436Z,3.50
2023-03-02T02:21:00.622Z,3.50
2023-03-02T02:22:00.766Z,3.50
2023-03-02T02:23:01.429Z,3.50
2023-03-02T02:24:01.448Z,3.50
2023-03-02T02:25:02.420Z,3.50
2023-03-02T02:26:06.635Z,3.50
2023-03-02T02:27:00.791Z,3.50
2023-03-02T02:28:02.511Z,3.50
2023-03-02T02:29:01.907Z,3.50
2023-03-02T02:30:02.138Z,3.50
2023-03-02T02:31:10.356Z,3.50
2023-03-02T02:32:09.302Z,3.50
2023-03-02T02:33:01.510Z,3.50
2023-03-02T02:34:05.787Z,3.50
2023-03-02T02:35:03.591Z,3.50
2023-03-02T02:36:02.713Z,3.50
2023-03-02T02:37:10.358Z,3.50
2023-03-02T02:38:02.389Z,3.50
2023-03-02T02:39:03.341Z,3.50
2023-03-02T02:40:02.053Z,3.50
2023-03-02T02:41:04.857Z,3.50
2023-03-02T02:42:02.473Z,4.00
2023-03-02T02:43:00.449Z,4.00
2023-03-02T02:44:00.433Z,4.00
2023-03-02T02:45:02.224Z,4.00
2023-03-02T02:46:01.253Z,4.00
2023-03-02T02:47:00.483Z,4.00
2023-03-02T02:48:00.496Z,4.00
2023-03-02T02:49:01.555Z,4.00
2023-03-02T02:50:00.901Z,4.00
2023-03-02T02:51:00.860Z,4.00
2023-03-02T02:52:00.516Z,4.00
2023-03-02T02:53:03.632Z,4.00
2023-03-02T02:54:01.408Z,4.00
2023-03-02T02:55:00.765Z,4.00
2023-03-02T02:56:01.833Z,4.00
2023-03-02T02:57:01.728Z,4.00
2023-03-02T02:58:01.965Z,4.00
2023-03-02T02:59:03.441Z,4.00
2023-03-02T03:00:00.660Z,4.00
2023-03-02T03:01:00.662Z,4.00
2023-03-02T03:02:00.455Z,4.00
2023-03-02T03:03:02.401Z,4.00
2023-03-02T03:04:02.065Z,4.00
2023-03-02T03:05:00.438Z,4.00
2023-03-02T03:06:01.996Z,4.00
2023-03-02T03:07:01.903Z,4.00
2023-03-02T03:08:08.500Z,4.00
2023-03-02T03:09:00.444Z,4.00
2023-03-02T03:10:00.479Z,4.00
2023-03-02T03:11:00.781Z,4.00
2023-03-02T03:12:02.110Z,3.30
2023-03-02T03:13:00.935Z,3.30
2023-03-02T03:14:04.167Z,3.30
2023-03-02T03:15:01.640Z,3.30
2023-03-02T03:16:01.783Z,3.30
2023-03-02T03:17:00.484Z,3.30
2023-03-02T03:18:00.423Z,3.30
2023-03-02T03:19:04.070Z,3.30
2023-03-02T03:20:00.435Z,3.30
2023-03-02T03:21:00.437Z,3.30
2023-03-02T03:22:01.100Z,3.30
2023-03-02T03:23:00.484Z,3.30
2023-03-02T03:24:00.533Z,3.30
2023-03-02T03:25:00.782Z,3.30
2023-03-02T03:26:00.425Z,3.30
2023-03-02T03:27:00.916Z,3.30
2023-03-02T03:28:00.439Z,3.30
2023-03-02T03:29:00.874Z,3.30
2023-03-02T03:30:00.529Z,3.30
2023-03-02T03:31:00.611Z,3.30
2023-03-02T03:32:01.178Z,3.30
2023-03-02T03:33:00.422Z,3.30
2023-03-02T03:34:01.016Z,3.30
2023-03-02T03:35:00.521Z,3.30
2023-03-02T03:36:00.506Z,3.30
2023-03-02T03:37:00.453Z,3.30
2023-03-02T03:38:00.443Z,3.30
2023-03-02T03:39:00.904Z,3.30
2023-03-02T03:40:00.514Z,3.30
2023-03-02T03:41:00.453Z,3.30
2023-03-02T03:42:00.453Z,4.00
2023-03-02T03:43:00.775Z,4.00
2023-03-02T03:44:00.459Z,4.00
2023-03-02T03:45:00.462Z,4.00
2023-03-02T03:46:00.539Z,4.00
2023-03-02T03:47:00.461Z,4.00
2023-03-02T03:48:00.432Z,4.00
2023-03-02T03:49:00.773Z,4.00
2023-03-02T03:50:00.521Z,4.00
2023-03-02T03:51:00.414Z,4.00
2023-03-02T03:52:00.421Z,4.00
2023-03-02T03:53:02.745Z,4.00
2023-03-02T03:54:01.464Z,4.00
2023-03-02T03:55:00.848Z,4.00
2023-03-02T03:56:00.783Z,4.00
2023-03-02T03:57:00.425Z,4.00
2023-03-02T03:58:00.416Z,4.00
2023-03-02T03:59:01.166Z,4.00
2023-03-02T04:00:00.986Z,4.00
2023-03-02T04:01:00.688Z,4.00
2023-03-02T04:02:00.458Z,4.00
2023-03-02T04:03:00.514Z,4.00
2023-03-02T04:04:01.481Z,4.00
2023-03-02T04:05:00.408Z,4.00
2023-03-02T04:06:00.418Z,4.00
2023-03-02T04:07:00.475Z,4.00
2023-03-02T04:08:00.510Z,4.00
2023-03-02T04:09:00.433Z,4.00
2023-03-02T04:10:00.422Z,4.00
2023-03-02T04:11:00.409Z,4.00
2023-03-02T04:12:00.487Z,4.50
2023-03-02T04:13:00.829Z,4.50
2023-03-02T04:14:00.540Z,4.50
2023-03-02T04:15:00.995Z,4.50
2023-03-02T04:16:00.485Z,4.50
2023-03-02T04:17:00.633Z,4.50
2023-03-02T04:18:00.513Z,4.50
2023-03-02T04:19:00.427Z,4.50
2023-03-02T04:20:00.458Z,4.50
2023-03-02T04:21:00.453Z,4.50
2023-03-02T04:22:00.426Z,4.50
2023-03-02T04:23:00.456Z,4.50
2023-03-02T04:24:00.415Z,4.50
2023-03-02T04:25:00.433Z,4.50
2023-03-02T04:26:00.419Z,4.50
2023-03-02T04:27:00.514Z,4.50
2023-03-02T04:28:00.501Z,4.50
2023-03-02T04:29:00.948Z,4.50
2023-03-02T04:30:00.449Z,4.50
2023-03-02T04:31:00.466Z,4.50
2023-03-02T04:32:00.703Z,4.50
2023-03-02T04:33:00.450Z,4.50
2023-03-02T04:34:00.458Z,4.50
2023-03-02T04:35:00.610Z,4.50
2023-03-02T04:36:00.587Z,4.50
2023-03-02T04:37:00.482Z,4.50
2023-03-02T04:38:00.420Z,4.50
2023-03-02T04:39:00.710Z,4.50
2023-03-02T04:40:00.436Z,4.50
2023-03-02T04:41:00.471Z,4.50
2023-03-02T04:42:00.461Z,4.50
2023-03-02T04:43:00.490Z,4.50
2023-03-02T04:44:00.423Z,4.50
2023-03-02T04:45:00.444Z,4.50
2023-03-02T04:46:00.581Z,4.50
2023-03-02T04:47:00.529Z,4.50
2023-03-02T04:48:00.435Z,4.50
2023-03-02T04:49:00.553Z,4.50
2023-03-02T04:50:00.613Z,4.50
2023-03-02T04:51:00.474Z,4.50
2023-03-02T04:52:00.465Z,4.50
2023-03-02T04:53:00.418Z,4.50
2023-03-02T04:54:02.018Z,4.50
2023-03-02T04:55:00.708Z,4.50
2023-03-02T04:56:00.446Z,4.50
2023-03-02T04:57:00.438Z,4.50
2023-03-02T04:58:00.427Z,4.50
2023-03-02T04:59:00.502Z,4.50
2023-03-02T05:00:00.496Z,4.50
2023-03-02T05:01:00.483Z,4.50
2023-03-02T05:02:00.571Z,4.50
2023-03-02T05:03:01.181Z,4.50
2023-03-02T05:04:02.792Z,4.50
2023-03-02T05:05:00.613Z,4.50
2023-03-02T05:06:00.436Z,4.50
2023-03-02T05:07:00.464Z,4.50
2023-03-02T05:08:00.464Z,4.50
2023-03-02T05:09:00.435Z,4.50
2023-03-02T05:10:00.430Z,4.50
2023-03-02T05:11:00.629Z,4.50
2023-03-02T05:12:00.696Z,4.80
2023-03-02T05:13:00.452Z,4.80
2023-03-02T05:14:01.304Z,4.80
2023-03-02T05:15:00.464Z,4.80
2023-03-02T05:16:00.513Z,4.80
2023-03-02T05:17:00.428Z,4.80
2023-03-02T05:18:00.801Z,4.80
2023-03-02T05:19:01.380Z,4.80
2023-03-02T05:20:00.427Z,4.80
2023-03-02T05:21:00.435Z,4.80
2023-03-02T05:22:00.558Z,4.80
2023-03-02T05:23:02.498Z,4.80
2023-03-02T05:24:00.434Z,4.80
2023-03-02T05:25:00.439Z,4.80
2023-03-02T05:26:00.440Z,4.80
2023-03-02T05:27:00.432Z,4.80
2023-03-02T05:28:00.985Z,4.80
2023-03-02T05:29:00.436Z,4.80
2023-03-02T05:30:00.440Z,4.80
2023-03-02T05:31:00.557Z,4.80
2023-03-02T05:32:00.456Z,4.80
2023-03-02T05:33:00.429Z,4.80
2023-03-02T05:34:01.104Z,4.80
2023-03-02T05:35:00.515Z,4.80
2023-03-02T05:36:00.477Z,4.80
2023-03-02T05:37:00.431Z,4.80
2023-03-02T05:38:00.427Z,4.80
2023-03-02T05:39:00.489Z,4.80
2023-03-02T05:40:00.548Z,4.80
2023-03-02T05:41:00.437Z,4.80
2023-03-02T05:42:00.435Z,6.00
2023-03-02T05:43:00.487Z,6.00
2023-03-02T05:44:00.606Z,6.00
2023-03-02T05:45:01.243Z,6.00
2023-03-02T05:46:00.679Z,6.00
2023-03-02T05:47:00.497Z,6.00
2023-03-02T05:48:00.514Z,6.00
2023-03-02T05:49:00.428Z,6.00
2023-03-02T05:50:00.442Z,6.00
2023-03-02T05:51:00.461Z,6.00
2023-03-02T05:52:00.433Z,6.00
2023-03-02T05:53:00.454Z,6.00
2023-03-02T05:54:01.052Z,6.00
2023-03-02T05:55:00.444Z,6.00
2023-03-02T05:56:00.471Z,6.00
2023-03-02T05:57:00.510Z,6.00
2023-03-02T05:58:00.431Z,6.00
2023-03-02T05:59:00.481Z,6.00
2023-03-02T06:00:00.434Z,6.00
2023-03-02T06:01:00.470Z,6.00
2023-03-02T06:02:00.522Z,6.00
2023-03-02T06:03:00.566Z,6.00
2023-03-02T06:04:00.453Z,6.00
2023-03-02T06:05:00.473Z,6.00
2023-03-02T06:06:00.429Z,6.00
2023-03-02T06:07:00.432Z,6.00
2023-03-02T06:08:00.493Z,6.00
2023-03-02T06:09:00.665Z,6.00
2023-03-02T06:10:00.461Z,6.00
2023-03-02T06:11:00.447Z,6.00
2023-03-02T06:12:00.420Z,8.50
2023-03-02T06:13:00.564Z,8.50
2023-03-02T06:14:00.418Z,8.50
2023-03-02T06:15:00.709Z,8.50
2023-03-02T06:16:00.501Z,8.50
2023-03-02T06:17:00.482Z,8.50
2023-03-02T06:18:00.444Z,8.50
2023-03-02T06:19:00.478Z,8.50
2023-03-02T06:20:00.848Z,8.50
2023-03-02T06:21:00.430Z,8.50
2023-03-02T06:22:01.237Z,8.50
2023-03-02T06:23:00.422Z,8.50
2023-03-02T06:24:00.448Z,8.50
2023-03-02T06:25:00.437Z,8.50
2023-03-02T06:26:05.810Z,8.50
2023-03-02T06:27:00.483Z,8.50
2023-03-02T06:28:00.445Z,8.50
2023-03-02T06:29:00.449Z,8.50
2023-03-02T06:30:00.523Z,8.50
2023-03-02T06:31:00.524Z,8.50
2023-03-02T06:32:00.614Z,8.50
2023-03-02T06:33:00.437Z,8.50
2023-03-02T06:34:00.722Z,8.50
2023-03-02T06:35:00.774Z,8.50
2023-03-02T06:36:00.595Z,8.50
2023-03-02T06:37:00.446Z,8.50
2023-03-02T06:38:00.465Z,8.50
2023-03-02T06:39:00.444Z,8.50
2023-03-02T06:40:00.476Z,8.50
2023-03-02T06:41:00.473Z,8.50
2023-03-02T06:42:00.422Z,8.90
2023-03-02T06:43:02.067Z,8.90
2023-03-02T06:44:00.465Z,8.90
2023-03-02T06:45:00.501Z,8.90
2023-03-02T06:46:00.474Z,8.90
2023-03-02T06:47:00.439Z,8.90
2023-03-02T06:48:00.938Z,8.90
2023-03-02T06:49:00.436Z,8.90
2023-03-02T06:50:00.468Z,8.90
2023-03-02T06:51:00.435Z,8.90
2023-03-02T06:52:00.476Z,8.90
2023-03-02T06:53:00.603Z,8.90
2023-03-02T06:54:00.936Z,8.90
2023-03-02T06:55:01.327Z,8.90
2023-03-02T06:56:00.425Z,8.90
2023-03-02T06:57:00.440Z,8.90
2023-03-02T06:58:00.435Z,8.90
2023-03-02T06:59:00.423Z,8.90
2023-03-02T07:00:02.779Z,8.90
2023-03-02T07:01:00.548Z,8.90
2023-03-02T07:02:00.516Z,8.90
2023-03-02T07:03:00.468Z,8.90
2023-03-02T07:04:01.236Z,8.90
2023-03-02T07:05:00.511Z,8.90
2023-03-02T07:06:00.903Z,8.90
2023-03-02T07:07:00.441Z,8.90
2023-03-02T07:08:00.796Z,8.90
2023-03-02T07:09:00.820Z,8.90
2023-03-02T07:10:00.455Z,8.90
2023-03-02T07:11:03.798Z,8.90
2023-03-02T07:12:00.492Z,10.90
2023-03-02T07:13:00.432Z,10.90
2023-03-02T07:14:00.800Z,10.90
2023-03-02T07:15:00.447Z,10.90
2023-03-02T07:16:04.245Z,10.90
2023-03-02T07:17:02.628Z,10.90
2023-03-02T07:18:00.425Z,10.90
2023-03-02T07:19:00.434Z,10.90
2023-03-02T07:20:00.436Z,10.90
2023-03-02T07:21:00.448Z,10.90
2023-03-02T07:22:00.584Z,10.90
2023-03-02T07:23:00.437Z,10.90
2023-03-02T07:24:00.456Z,10.90
2023-03-02T07:25:00.460Z,10.90
2023-03-02T07:26:00.478Z,10.90
2023-03-02T07:27:00.433Z,10.90
2023-03-02T07:28:00.419Z,10.90
2023-03-02T07:29:00.471Z,10.90
2023-03-02T07:30:00.474Z,10.90
2023-03-02T07:31:00.678Z,10.90
2023-03-02T07:32:00.559Z,10.90
2023-03-02T07:33:00.420Z,10.90
2023-03-02T07:34:00.432Z,10.90
2023-03-02T07:35:00.439Z,10.90
2023-03-02T07:36:00.590Z,10.90
2023-03-02T07:37:00.432Z,10.90
2023-03-02T07:38:00.418Z,10.90
2023-03-02T07:39:01.900Z,10.90
2023-03-02T07:40:01.010Z,10.90
2023-03-02T07:41:04.626Z,10.90
2023-03-02T07:42:00.842Z,15.10
2023-03-02T07:43:00.423Z,15.10
2023-03-02T07:44:00.431Z,15.10
2023-03-02T07:45:01.096Z,15.10
2023-03-02T07:46:00.568Z,15.10
2023-03-02T07:47:00.455Z,15.10
2023-03-02T07:48:00.433Z,15.10
2023-03-02T07:49:00.749Z,15.10
2023-03-02T07:50:00.444Z,15.10
2023-03-02T07:51:01.158Z,15.10
2023-03-02T07:52:01.283Z,15.10
2023-03-02T07:53:00.477Z,15.10
2023-03-02T07:54:00.453Z,15.10
2023-03-02T07:55:00.440Z,15.10
2023-03-02T07:56:04.529Z,15.10
2023-03-02T07:57:00.424Z,15.10
2023-03-02T07:58:00.441Z,15.10
2023-03-02T07:59:00.435Z,15.10
2023-03-02T08:00:00.483Z,15.10
2023-03-02T08:01:00.438Z,15.10
2023-03-02T08:02:00.542Z,15.10
2023-03-02T08:03:00.506Z,15.10
2023-03-02T08:04:00.450Z,15.10
2023-03-02T08:05:00.432Z,15.10
2023-03-02T08:06:03.709Z,15.10
2023-03-02T08:07:00.443Z,15.10
2023-03-02T08:08:00.470Z,15.10
2023-03-02T08:09:01.115Z,15.10
2023-03-02T08:10:00.435Z,15.10
2023-03-02T08:11:09.911Z,15.10
2023-03-02T08:12:00.429Z,16.90
2023-03-02T08:13:00.433Z,16.90
2023-03-02T08:14:01.169Z,16.90
2023-03-02T08:15:01.686Z,16.90
2023-03-02T08:16:01.418Z,16.90
2023-03-02T08:17:00.563Z,16.90
2023-03-02T08:18:00.416Z,16.90
2023-03-02T08:19:00.473Z,16.90
2023-03-02T08:20:00.536Z,16.90
2023-03-02T08:21:00.433Z,16.90
2023-03-02T08:22:00.825Z,16.90
2023-03-02T08:23:00.428Z,16.90
2023-03-02T08:24:00.488Z,16.90
2023-03-02T08:25:00.425Z,16.90
2023-03-02T08:26:00.443Z,16.90
2023-03-02T08:27:00.957Z,16.90
2023-03-02T08:28:00.448Z,16.90
2023-03-02T08:29:00.444Z,16.90
2023-03-02T08:30:00.492Z,16.90
2023-03-02T08:31:01.160Z,16.90
2023-03-02T08:32:00.584Z,16.90
2023-03-02T08:33:04.874Z,16.90
2023-03-02T08:34:00.448Z,16.90
2023-03-02T08:35:00.494Z,16.90
2023-03-02T08:36:01.968Z,16.90
2023-03-02T08:37:00.443Z,16.90
2023-03-02T08:38:00.448Z,16.90
2023-03-02T08:39:00.441Z,16.90
2023-03-02T08:40:00.447Z,16.90
2023-03-02T08:41:02.809Z,16.90
2023-03-02T08:42:00.451Z,19.30
2023-03-02T08:43:00.434Z,19.30
2023-03-02T08:44:00.433Z,19.30
2023-03-02T08:45:00.424Z,19.30
2023-03-02T08:46:00.898Z,19.30
2023-03-02T08:47:00.444Z,19.30
2023-03-02T08:48:00.428Z,19.30
2023-03-02T08:49:00.447Z,19.30
2023-03-02T08:50:00.495Z,19.30
2023-03-02T08:51:03.010Z,19.30
2023-03-02T08:52:00.477Z,19.30
2023-03-02T08:53:00.433Z,19.30
2023-03-02T08:54:00.962Z,19.30
2023-03-02T08:55:02.033Z,19.30
2023-03-02T08:56:00.441Z,19.30
2023-03-02T08:57:00.991Z,19.30
2023-03-02T08:58:00.428Z,19.30
2023-03-02T08:59:02.116Z,19.30
2023-03-02T09:00:00.445Z,19.30
2023-03-02T09:01:00.500Z,19.30
2023-03-02T09:02:00.481Z,19.30
2023-03-02T09:03:00.473Z,19.30
2023-03-02T09:04:01.113Z,19.30
2023-03-02T09:05:00.477Z,19.30
2023-03-02T09:06:00.428Z,19.30
2023-03-02T09:07:00.437Z,19.30
2023-03-02T09:08:00.730Z,19.30
2023-03-02T09:09:00.514Z,19.30
2023-03-02T09:10:00.438Z,19.30
2023-03-02T09:11:00.465Z,19.30
2023-03-02T09:12:00.575Z,19.90
2023-03-02T09:13:00.673Z,19.90
2023-03-02T09:14:00.858Z,19.90
2023-03-02T09:15:00.504Z,19.90
2023-03-02T09:16:00.718Z,19.90
2023-03-02T09:17:00.512Z,19.90
2023-03-02T09:18:00.442Z,19.90
2023-03-02T09:19:00.467Z,19.90
2023-03-02T09:20:00.455Z,19.90
2023-03-02T09:21:00.461Z,19.90
2023-03-02T09:22:00.432Z,19.90
2023-03-02T09:23:00.446Z,19.90
2023-03-02T09:24:00.438Z,19.90
2023-03-02T09:25:01.023Z,19.90
2023-03-02T09:26:00.424Z,19.90
2023-03-02T09:27:00.776Z,19.90
2023-03-02T09:28:00.442Z,19.90
2023-03-02T09:29:00.447Z,19.90
2023-03-02T09:30:00.465Z,19.90
2023-03-02T09:31:01.256Z,19.90
2023-03-02T09:32:00.580Z,19.90
2023-03-02T09:33:00.583Z,19.90
2023-03-02T09:34:00.431Z,19.90
2023-03-02T09:35:00.430Z,19.90
2023-03-02T09:36:04.351Z,19.90
2023-03-02T09:37:00.522Z,19.90
2023-03-02T09:38:00.443Z,19.90
2023-03-02T09:39:00.479Z,19.90
2023-03-02T09:40:00.433Z,19.90
2023-03-02T09:41:03.759Z,19.90
2023-03-02T09:42:00.405Z,17.50
2023-03-02T09:43:00.416Z,17.50
2023-03-02T09:44:10.358Z,17.50
2023-03-02T09:45:07.848Z,17.50
2023-03-02T09:46:09.113Z,17.50
2023-03-02T09:47:01.432Z,17.50
2023-03-02T09:48:00.415Z,17.50
2023-03-02T09:49:10.345Z,17.50
2023-03-02T09:50:10.474Z,17.50
2023-03-02T09:51:10.354Z,17.50
2023-03-02T09:52:07.754Z,17.50
2023-03-02T09:53:10.361Z,17.50
2023-03-02T09:54:00.497Z,17.50
2023-03-02T09:55:10.356Z,17.50
2023-03-02T09:56:00.526Z,17.50
2023-03-02T09:57:00.654Z,17.50
2023-03-02T09:58:04.182Z,17.50
2023-03-02T09:59:04.034Z,17.50
2023-03-02T10:00:16.503Z,17.50
2023-03-02T10:01:02.252Z,17.50
2023-03-02T10:02:10.349Z,17.50
2023-03-02T10:03:14.767Z,17.50
2023-03-02T10:04:06.205Z,17.50
2023-03-02T10:05:03.327Z,17.50
2023-03-02T10:06:00.442Z,17.50
2023-03-02T10:07:09.357Z,17.50
2023-03-02T10:08:00.478Z,17.50
2023-03-02T10:09:00.469Z,17.50
2023-03-02T10:10:05.702Z,17.50
2023-03-02T10:11:10.344Z,17.50
2023-03-02T10:12:10.345Z,14.90
2023-03-02T10:13:03.698Z,14.90
2023-03-02T10:14:10.366Z,14.90
2023-03-02T10:15:10.344Z,14.90
2023-03-02T10:16:06.497Z,14.90
2023-03-02T10:17:10.339Z,14.90
2023-03-02T10:18:10.362Z,14.90
2023-03-02T10:19:05.639Z,14.90
2023-03-02T10:20:03.322Z,14.90
2023-03-02T10:21:10.338Z,14.90
2023-03-02T10:22:09.188Z,14.90
2023-03-02T10:23:09.500Z,14.90
2023-03-02T10:24:01.427Z,14.90
2023-03-02T10:25:10.347Z,14.90
2023-03-02T10:26:10.339Z,14.90
2023-03-02T10:27:07.234Z,14.90
2023-03-02T10:28:08.206Z,14.90
2023-03-02T10:29:09.531Z,14.90
2023-03-02T10:30:05.106Z,14.90
2023-03-02T10:31:09.206Z,14.90
2023-03-02T10:32:10.411Z,14.90
2023-03-02T10:33:02.695Z,14.90
2023-03-02T10:34:00.443Z,14.90
2023-03-02T10:35:01.544Z,14.90
2023-03-02T10:36:02.204Z,14.90
2023-03-02T10:37:00.426Z,14.90
2023-03-02T10:38:10.235Z,14.90
2023-03-02T10:39:02.109Z,14.90
2023-03-02T10:40:00.440Z,14.90
2023-03-02T10:41:02.428Z,14.90
2023-03-02T10:42:03.528Z,11.90
2023-03-02T10:43:01.788Z,11.90
2023-03-02T10:44:03.265Z,11.90
2023-03-02T10:45:10.338Z,11.90
2023-03-02T10:46:02.016Z,11.90
2023-03-02T10:47:00.471Z,11.90
2023-03-02T10:48:02.952Z,11.90
2023-03-02T10:49:00.451Z,11.90
2023-03-02T10:50:00.468Z,11.90
2023-03-02T10:51:00.700Z,11.90
2023-03-02T10:52:10.351Z,11.90
2023-03-02T10:53:03.016Z,11.90
2023-03-02T10:54:04.613Z,11.90
2023-03-02T10:55:02.003Z,11.90
2023-03-02T10:56:04.126Z,11.90
2023-03-02T10:57:01.416Z,11.90
2023-03-02T10:58:10.362Z,11.90
2023-03-02T10:59:00.506Z,11.90
2023-03-02T11:00:04.774Z,11.90
2023-03-02T11:01:01.654Z,11.90
2023-03-02T11:02:01.579Z,11.90
2023-03-02T11:03:02.663Z,11.90
2023-03-02T11:04:00.935Z,11.90
2023-03-02T11:05:10.360Z,11.90
2023-03-02T11:06:10.352Z,11.90
2023-03-02T11:07:08.731Z,11.90
2023-03-02T11:08:05.205Z,11.90
2023-03-02T11:09:01.994Z,11.90
2023-03-02T11:10:03.904Z,11.90
2023-03-02T11:11:01.856Z,11.90
2023-03-02T11:12:00.870Z,11.90
2023-03-02T11:13:01.179Z,10.30
2023-03-02T11:14:10.385Z,10.30
2023-03-02T11:15:10.407Z,10.30
2023-03-02T11:16:01.897Z,10.30
2023-03-02T11:17:02.454Z,10.30
2023-03-02T11:18:03.202Z,10.30
2023-03-02T11:19:02.634Z,10.30
2023-03-02T11:20:01.495Z,10.30
2023-03-02T11:21:02.792Z,10.30
2023-03-02T11:22:01.540Z,10.30
2023-03-02T11:23:06.457Z,10.30
2023-03-02T11:24:00.646Z,10.30
2023-03-02T11:25:02.924Z,10.30
2023-03-02T11:26:05.946Z,10.30
2023-03-02T11:27:10.445Z,10.30
2023-03-02T11:28:04.447Z,10.30
2023-03-02T11:29:10.445Z,10.30
2023-03-02T11:30:10.389Z,10.30
2023-03-02T11:31:04.364Z,10.30
2023-03-02T11:32:07.581Z,10.30
2023-03-02T11:33:06.888Z,10.30
2023-03-02T11:34:07.915Z,10.30
2023-03-02T11:35:01.583Z,10.30
2023-03-02T11:36:05.692Z,10.30
2023-03-02T11:37:03.764Z,10.30
2023-03-02T11:38:10.368Z,10.30
2023-03-02T11:39:01.397Z,10.30
2023-03-02T11:40:03.827Z,10.30
2023-03-02T11:41:09.944Z,10.30
2023-03-02T11:42:00.544Z,10.30
2023-03-02T11:43:01.495Z,9.20
2023-03-02T11:44:06.609Z,9.20
2023-03-02T11:45:07.637Z,9.20
2023-03-02T11:46:06.702Z,9.20
2023-03-02T11:47:00.641Z,9.20
2023-03-02T11:48:05.313Z,9.20
2023-03-02T11:49:03.801Z,9.20
2023-03-02T11:50:02.429Z,9.20
2023-03-02T11:51:02.250Z,9.20
2023-03-02T11:52:00.764Z,9.20
2023-03-02T11:53:02.780Z,9.20
2023-03-02T11:54:02.847Z,9.20
2023-03-02T11:55:10.364Z,9.20
2023-03-02T11:56:00.433Z,9.20
2023-03-02T11:57:00.473Z,9.20
2023-03-02T11:59:02.409Z,9.20
2023-03-02T12:00:01.352Z,9.20
2023-03-02T12:01:00.905Z,9.20
2023-03-02T12:02:01.325Z,9.20
2023-03-02T12:03:01.713Z,9.20
2023-03-02T12:04:08.928Z,9.20
2023-03-02T12:05:06.101Z,9.20
2023-03-02T12:06:05.261Z,9.20
2023-03-02T12:07:02.549Z,9.20
2023-03-02T12:08:05.091Z,9.20
2023-03-02T12:09:10.396Z,9.20
2023-03-02T12:10:04.101Z,9.20
2023-03-02T12:11:03.945Z,9.20
2023-03-02T12:12:10.355Z,8.60
2023-03-02T12:13:01.426Z,8.60
2023-03-02T12:14:02.853Z,8.60
2023-03-02T12:15:00.666Z,8.60
2023-03-02T12:16:00.547Z,8.60
2023-03-02T12:17:04.504Z,8.60
2023-03-02T12:18:00.456Z,8.60
2023-03-02T12:19:10.351Z,8.60
2023-03-02T12:20:07.846Z,8.60
2023-03-02T12:21:00.441Z,8.60
2023-03-02T12:22:02.030Z,8.60
2023-03-02T12:23:08.880Z,8.60
2023-03-02T12:24:00.654Z,8.60
2023-03-02T12:25:03.700Z,8.60
2023-03-02T12:26:02.639Z,8.60
2023-03-02T12:27:02.172Z,8.60
2023-03-02T12:28:00.450Z,8.60
2023-03-02T12:29:10.403Z,8.60
2023-03-02T12:30:09.917Z,8.60
2023-03-02T12:31:01.792Z,8.60
2023-03-02T12:32:09.050Z,8.60
2023-03-02T12:33:00.440Z,8.60
2023-03-02T12:34:10.432Z,8.60
2023-03-02T12:35:08.098Z,8.60
2023-03-02T12:36:09.265Z,8.60
2023-03-02T12:37:07.198Z,8.60
2023-03-02T12:38:04.492Z,8.60
2023-03-02T12:39:08.580Z,8.60
2023-03-02T12:40:10.368Z,8.60
2023-03-02T12:41:00.416Z,8.60
2023-03-02T12:42:10.400Z,6.50
2023-03-02T12:43:10.419Z,6.50
2023-03-02T12:44:00.462Z,6.50
2023-03-02T12:45:10.460Z,6.50
2023-03-02T12:46:10.411Z,6.50
2023-03-02T12:47:02.843Z,6.50
2023-03-02T12:48:02.469Z,6.50
2023-03-02T12:49:05.537Z,6.50
2023-03-02T12:50:04.410Z,6.50
2023-03-02T12:51:02.208Z,6.50
2023-03-02T12:52:02.611Z,6.50
2023-03-02T12:53:01.832Z,6.50
2023-03-02T12:54:01.393Z,6.50
2023-03-02T12:55:02.948Z,6.50
2023-03-02T12:56:00.480Z,6.50
2023-03-02T12:57:02.997Z,6.50
2023-03-02T12:58:00.752Z,6.50
2023-03-02T12:59:00.463Z,6.50
2023-03-02T13:00:01.632Z,6.50
2023-03-02T13:01:01.421Z,6.50
2023-03-02T13:02:10.399Z,6.50
2023-03-02T13:03:00.776Z,6.50
2023-03-02T13:04:00.497Z,6.50
2023-03-02T13:05:03.102Z,6.50
2023-03-02T13:06:02.971Z,6.50
2023-03-02T13:07:00.514Z,6.50
2023-03-02T13:08:02.081Z,6.50
2023-03-02T13:09:00.582Z,6.50
2023-03-02T13:10:02.197Z,6.50